createdAt,value
2023-05-06T00:01:54.074Z,10.49
2023-05-06T00:04:23.644Z,10.54
2023-05-06T00:06:51.392Z,10.81
2023-05-06T00:09:19.057Z,10.23
2023-05-06T00:11:47.539Z,10.41
2023-05-06T00:14:15.247Z,10.57
2023-05-06T00:16:43.008Z,10.49
2023-05-06T00:19:10.895Z,10.27
2023-05-06T00:21:39.940Z,10.63
2023-05-06T00:24:07.981Z,10.53
2023-05-06T00:26:35.708Z,10.21
2023-05-06T00:29:03.331Z,10.26
2023-05-06T00:31:31.011Z,10.44
2023-05-06T00:33:58.665Z,10.52
2023-05-06T00:36:26.407Z,10.25
2023-05-06T00:38:55.461Z,10.30
2023-05-06T00:41:23.085Z,10.67
2023-05-06T00:43:50.749Z,10.46
2023-05-06T00:46:18.642Z,10.32
2023-05-06T00:48:46.558Z,10.28
2023-05-06T00:51:15.414Z,10.30
2023-05-06T00:53:43.142Z,10.84
2023-05-06T00:56:12.469Z,11.06
2023-05-06T00:58:40.477Z,10.92
2023-05-06T01:01:08.304Z,11.22
2023-05-06T01:03:36.206Z,10.94
2023-05-06T01:06:13.019Z,11.10
2023-05-06T01:08:48.054Z,10.79
2023-05-06T01:11:24.557Z,11.34
2023-05-06T01:14:00.141Z,11.82
2023-05-06T01:16:30.826Z,10.99
2023-05-06T01:19:00.595Z,10.96
2023-05-06T01:21:34.631Z,10.98
2023-05-06T01:24:03.698Z,10.99
2023-05-06T01:26:31.529Z,11.51
2023-05-06T01:29:01.934Z,10.78
2023-05-06T01:31:36.503Z,11.15
2023-05-06T01:34:14.356Z,10.86
2023-05-06T01:36:48.596Z,10.72
2023-05-06T01:39:19.753Z,10.69
2023-05-06T01:41:49.910Z,11.72
2023-05-06T01:44:18.402Z,11.75
2023-05-06T01:46:46.476Z,10.91
2023-05-06T01:49:18.001Z,10.36
2023-05-06T01:51:48.895Z,10.97
2023-05-06T01:54:18.465Z,10.95
2023-05-06T01:56:46.519Z,10.87
2023-05-06T01:59:14.239Z,10.65
2023-05-06T02:01:41.945Z,10.78
2023-05-06T02:04:09.591Z,10.58
2023-05-06T02:06:37.362Z,10.52
2023-05-06T02:09:05.272Z,10.66
2023-05-06T02:11:34.233Z,11.03
2023-05-06T02:14:02.163Z,11.28
2023-05-06T02:16:30.187Z,10.69
2023-05-06T02:18:57.912Z,10.80
2023-05-06T02:21:25.570Z,10.99
2023-05-06T02:23:53.188Z,11.01
2023-05-06T02:26:20.905Z,10.94
2023-05-06T02:28:50.057Z,11.16
2023-05-06T02:31:18.101Z,10.81
2023-05-06T02:33:46.592Z,10.50
2023-05-06T02:36:14.260Z,10.49
2023-05-06T02:38:41.904Z,10.84
2023-05-06T02:41:10.542Z,10.53
2023-05-06T02:43:38.390Z,11.13
2023-05-06T02:46:07.639Z,10.58
2023-05-06T02:48:35.380Z,10.53
2023-05-06T02:51:03.640Z,10.65
2023-05-06T02:53:31.322Z,10.45
2023-05-06T02:55:58.959Z,10.31
2023-05-06T02:58:26.682Z,10.85
2023-05-06T03:00:54.320Z,10.57
2023-05-06T03:03:23.932Z,10.83
2023-05-06T03:05:51.564Z,10.61
2023-05-06T03:08:19.272Z,10.49
2023-05-06T03:10:46.910Z,10.31
2023-05-06T03:13:14.743Z,10.23
2023-05-06T03:15:42.499Z,10.71
2023-05-06T03:18:10.303Z,10.24
2023-05-06T03:20:39.365Z,10.47
2023-05-06T03:23:07.016Z,10.46
2023-05-06T03:25:35.151Z,10.40
2023-05-06T03:28:02.844Z,10.55
2023-05-06T03:30:30.508Z,10.43
2023-05-06T03:32:58.934Z,10.84
2023-05-06T03:35:26.701Z,10.39
2023-05-06T03:37:55.802Z,10.29
2023-05-06T03:40:23.524Z,10.29
2023-05-06T03:42:51.158Z,10.57
2023-05-06T03:45:18.875Z,10.34
2023-05-06T03:47:46.843Z,10.37
2023-05-06T03:50:15.316Z,10.82
2023-05-06T03:52:43.324Z,10.11
2023-05-06T03:55:12.732Z,10.45
2023-05-06T03:57:40.661Z,10.61
2023-05-06T04:00:09.844Z,10.56
2023-05-06T04:02:38.171Z,10.42
2023-05-06T04:05:07.723Z,10.39
2023-05-06T04:07:35.905Z,10.33
2023-05-06T04:10:03.571Z,10.39
2023-05-06T04:12:32.655Z,10.34
2023-05-06T04:15:00.336Z,10.94
2023-05-06T04:17:27.983Z,10.33
2023-05-06T04:19:55.965Z,10.51
2023-05-06T04:22:23.587Z,10.78
2023-05-06T04:24:51.823Z,11.00
2023-05-06T04:27:19.425Z,10.78
2023-05-06T04:29:48.433Z,10.59
2023-05-06T04:32:18.029Z,11.07
2023-05-06T04:34:47.323Z,11.30
2023-05-06T04:37:15.284Z,10.48
2023-05-06T04:39:47.205Z,10.88
2023-05-06T04:42:15.032Z,10.65
2023-05-06T04:44:43.184Z,10.83
2023-05-06T04:47:12.198Z,10.92
2023-05-06T04:49:40.600Z,10.62
2023-05-06T04:52:08.351Z,11.23
2023-05-06T04:54:36.574Z,10.49
2023-05-06T04:57:04.253Z,10.80
2023-05-06T04:59:31.852Z,11.26
2023-05-06T05:01:59.523Z,11.80
2023-05-06T05:04:28.695Z,11.38
2023-05-06T05:06:56.327Z,11.00
2023-05-06T05:09:23.974Z,10.88
2023-05-06T05:11:51.689Z,11.44
2023-05-06T05:14:19.369Z,10.99
2023-05-06T05:16:47.089Z,11.89
2023-05-06T05:19:14.768Z,12.10
2023-05-06T05:21:43.780Z,11.78
2023-05-06T05:24:11.423Z,11.69
2023-05-06T05:26:39.214Z,11.72
2023-05-06T05:29:07.368Z,11.44
2023-05-06T05:31:35.378Z,11.17
2023-05-06T05:34:03.072Z,11.62
2023-05-06T05:36:30.725Z,10.71
2023-05-06T05:38:59.721Z,10.46
2023-05-06T05:41:27.428Z,11.03
2023-05-06T05:43:55.046Z,11.39
2023-05-06T05:46:22.798Z,11.02
2023-05-06T05:48:50.569Z,11.16
2023-05-06T05:51:20.434Z,11.89
2023-05-06T05:53:48.261Z,12.53
2023-05-06T05:56:17.273Z,11.36
2023-05-06T05:58:44.960Z,11.62
2023-05-06T06:01:12.586Z,11.20
2023-05-06T06:03:40.407Z,10.81
2023-05-06T06:06:09.286Z,11.30
2023-05-06T06:08:37.385Z,11.33
2023-05-06T06:11:06.136Z,11.42
2023-05-06T06:13:35.225Z,11.61
2023-05-06T06:16:03.025Z,11.41
2023-05-06T06:18:30.810Z,10.94
2023-05-06T06:20:58.659Z,11.51
2023-05-06T06:23:26.388Z,11.03
2023-05-06T06:25:54.067Z,10.76
2023-05-06T06:28:22.264Z,11.15
2023-05-06T06:30:51.364Z,11.21
2023-05-06T06:33:19.003Z,11.18
2023-05-06T06:35:46.638Z,11.65
2023-05-06T06:38:14.261Z,11.92
2023-05-06T06:40:41.868Z,11.96
2023-05-06T06:43:09.469Z,11.52
2023-05-06T06:45:37.154Z,10.44
2023-05-06T06:48:06.683Z,11.61
2023-05-06T06:50:34.378Z,12.18
2023-05-06T06:53:04.230Z,11.56
2023-05-06T06:55:33.236Z,11.32
2023-05-06T06:58:00.876Z,11.04
2023-05-06T07:00:28.536Z,11.46
2023-05-06T07:02:56.236Z,10.95
2023-05-06T07:05:27.440Z,10.93
2023-05-06T07:07:55.440Z,11.28
2023-05-06T07:10:23.765Z,11.13
2023-05-06T07:12:51.834Z,11.71
2023-05-06T07:15:19.712Z,12.39
2023-05-06T07:17:50.320Z,11.43
2023-05-06T07:20:20.268Z,11.05
2023-05-06T07:22:49.272Z,11.21
2023-05-06T07:25:16.951Z,10.77
2023-05-06T07:27:44.629Z,10.95
2023-05-06T07:30:12.832Z,11.60
2023-05-06T07:32:41.196Z,11.99
2023-05-06T07:35:10.251Z,11.70
2023-05-06T07:37:38.156Z,11.62
2023-05-06T07:40:08.621Z,11.53
2023-05-06T07:42:36.228Z,11.97
2023-05-06T07:45:04.003Z,11.94
2023-05-06T07:47:33.370Z,12.16
2023-05-06T07:50:01.084Z,12.71
2023-05-06T07:52:28.912Z,11.84
2023-05-06T07:54:56.741Z,11.53
2023-05-06T07:57:25.918Z,11.34
2023-05-06T07:59:53.963Z,11.75
2023-05-06T08:02:21.777Z,12.01
2023-05-06T08:04:51.639Z,11.52
2023-05-06T08:07:19.903Z,11.65
2023-05-06T08:09:47.714Z,11.77
2023-05-06T08:12:15.841Z,11.75
2023-05-06T08:14:44.871Z,11.37
2023-05-06T08:17:14.020Z,11.16
2023-05-06T08:19:41.741Z,11.80
2023-05-06T08:22:09.426Z,12.13
2023-05-06T08:24:37.147Z,11.26
2023-05-06T08:27:04.960Z,11.36
2023-05-06T08:29:32.595Z,11.47
2023-05-06T08:32:01.723Z,11.30
2023-05-06T08:34:29.398Z,11.23
2023-05-06T08:36:57.083Z,11.67
2023-05-06T08:39:24.766Z,11.89
2023-05-06T08:41:55.424Z,11.96
2023-05-06T08:44:25.635Z,11.96
2023-05-06T08:46:53.610Z,12.70
2023-05-06T08:49:22.778Z,12.23
2023-05-06T08:51:52.533Z,12.39
2023-05-06T08:54:20.433Z,12.91
2023-05-06T08:56:53.818Z,12.12
2023-05-06T08:59:24.954Z,12.37
2023-05-06T09:01:53.149Z,13.57
2023-05-06T09:04:22.537Z,12.64
2023-05-06T09:06:50.130Z,13.42
2023-05-06T09:09:18.087Z,13.06
2023-05-06T09:11:45.938Z,12.27
2023-05-06T09:14:15.656Z,12.80
2023-05-06T09:16:44.599Z,12.11
2023-05-06T09:19:12.787Z,13.24
2023-05-06T09:21:43.204Z,13.89
2023-05-06T09:24:11.974Z,13.29
2023-05-06T09:26:41.694Z,11.77
2023-05-06T09:29:09.832Z,12.68
2023-05-06T09:31:42.572Z,13.45
2023-05-06T09:34:11.644Z,12.53
2023-05-06T09:36:41.308Z,12.57
2023-05-06T09:39:09.854Z,12.04
2023-05-06T09:41:37.634Z,12.18
2023-05-06T09:44:06.208Z,12.55
2023-05-06T09:46:34.356Z,12.22
2023-05-06T09:49:02.302Z,11.81
2023-05-06T09:51:32.586Z,12.25
2023-05-06T09:54:02.043Z,12.12
2023-05-06T09:56:31.484Z,12.75
2023-05-06T09:59:01.222Z,12.98
2023-05-06T10:01:36.560Z,12.46
2023-05-06T10:04:09.270Z,12.52
2023-05-06T10:06:39.402Z,12.41
2023-05-06T10:09:09.277Z,12.11
2023-05-06T10:11:38.139Z,12.59
2023-05-06T10:14:07.148Z,12.81
2023-05-06T10:16:35.750Z,12.54
2023-05-06T10:19:05.938Z,13.34
2023-05-06T10:21:37.079Z,12.96
2023-05-06T10:24:09.270Z,12.63
2023-05-06T10:26:38.885Z,13.26
2023-05-06T10:29:10.299Z,12.86
2023-05-06T10:31:45.318Z,12.67
2023-05-06T10:34:13.577Z,13.13
2023-05-06T10:36:44.557Z,13.27
2023-05-06T10:39:14.586Z,12.74
2023-05-06T10:41:42.539Z,13.29
2023-05-06T10:44:10.290Z,12.21
2023-05-06T10:46:59.825Z,12.04
2023-05-06T10:49:28.011Z,12.18
2023-05-06T10:52:11.954Z,12.40
2023-05-06T10:54:50.737Z,13.56
2023-05-06T10:57:20.700Z,12.70
2023-05-06T10:59:49.739Z,13.03
2023-05-06T11:02:19.874Z,13.07
2023-05-06T11:04:52.587Z,12.61
2023-05-06T11:07:24.930Z,13.09
2023-05-06T11:09:58.413Z,12.72
2023-05-06T11:12:47.262Z,12.96
2023-05-06T11:15:24.835Z,13.81
2023-05-06T11:17:54.098Z,13.36
2023-05-06T11:20:23.306Z,13.14
2023-05-06T11:22:51.211Z,13.35
2023-05-06T11:25:42.664Z,13.91
2023-05-06T11:28:12.555Z,12.86
2023-05-06T11:30:42.713Z,13.51
2023-05-06T11:33:18.169Z,13.34
2023-05-06T11:35:46.559Z,14.28
2023-05-06T11:38:14.281Z,13.33
2023-05-06T11:40:43.885Z,12.40
2023-05-06T11:43:12.642Z,12.47
2023-05-06T11:45:44.621Z,12.78
2023-05-06T11:48:13.266Z,12.39
2023-05-06T11:50:45.537Z,12.71
2023-05-06T11:53:13.343Z,12.69
2023-05-06T11:55:41.429Z,13.14
2023-05-06T11:58:16.597Z,12.67
2023-05-06T12:00:51.416Z,13.14
2023-05-06T12:03:19.630Z,14.00
2023-05-06T12:05:48.725Z,12.86
2023-05-06T12:08:26.738Z,13.32
2023-05-06T12:10:56.909Z,13.19
2023-05-06T12:13:26.137Z,13.46
2023-05-06T12:15:55.883Z,13.40
2023-05-06T12:18:24.443Z,12.86
2023-05-06T12:20:54.636Z,12.92
2023-05-06T12:23:22.736Z,12.66
2023-05-06T12:26:02.299Z,13.23
2023-05-06T12:28:32.101Z,13.83
2023-05-06T12:30:59.739Z,13.60
2023-05-06T12:33:27.519Z,12.86
2023-05-06T12:35:58.199Z,12.79
2023-05-06T12:38:25.987Z,12.80
2023-05-06T12:40:55.473Z,13.57
2023-05-06T12:43:32.277Z,12.91
2023-05-06T12:46:07.294Z,13.46
2023-05-06T12:48:35.416Z,13.12
2023-05-06T12:51:18.816Z,13.52
2023-05-06T12:53:46.523Z,13.82
2023-05-06T12:56:14.311Z,13.26
2023-05-06T12:58:43.346Z,12.69
2023-05-06T13:01:11.046Z,12.72
2023-05-06T13:03:40.780Z,12.55
2023-05-06T13:06:08.917Z,12.07
2023-05-06T13:08:36.489Z,12.49
2023-05-06T13:11:04.102Z,12.95
2023-05-06T13:13:31.727Z,13.53
2023-05-06T13:16:01.511Z,13.11
2023-05-06T13:18:30.240Z,13.56
2023-05-06T13:21:00.134Z,14.01
2023-05-06T13:23:27.978Z,13.29
2023-05-06T13:26:04.206Z,14.27
2023-05-06T13:28:35.372Z,12.99
2023-05-06T13:31:04.895Z,12.62
2023-05-06T13:33:32.629Z,12.66
2023-05-06T13:36:00.319Z,13.08
2023-05-06T13:38:27.994Z,13.63
2023-05-06T13:40:55.828Z,13.47
2023-05-06T13:43:25.536Z,12.84
2023-05-06T13:45:53.907Z,12.69
2023-05-06T13:48:22.939Z,12.36
2023-05-06T13:50:50.790Z,13.02
2023-05-06T13:53:18.428Z,13.28
2023-05-06T13:55:46.924Z,12.42
2023-05-06T13:58:14.575Z,12.49
2023-05-06T14:00:42.211Z,12.14
2023-05-06T14:03:09.870Z,12.44
2023-05-06T14:05:38.888Z,13.16
2023-05-06T14:08:08.260Z,13.13
2023-05-06T14:10:36.043Z,14.29
2023-05-06T14:13:05.534Z,13.75
2023-05-06T14:15:34.636Z,12.72
2023-05-06T14:18:02.453Z,13.12
2023-05-06T14:20:30.178Z,13.53
2023-05-06T14:22:59.209Z,12.36
2023-05-06T14:25:27.988Z,13.24
2023-05-06T14:27:55.921Z,13.00
2023-05-06T14:30:23.750Z,13.72
2023-05-06T14:32:51.447Z,13.32
2023-05-06T14:35:19.662Z,13.95
2023-05-06T14:37:47.537Z,13.89
2023-05-06T14:40:17.953Z,12.74
2023-05-06T14:42:46.180Z,12.85
2023-05-06T14:45:15.701Z,13.10
2023-05-06T14:47:43.614Z,13.32
2023-05-06T14:50:12.169Z,12.32
2023-05-06T14:52:40.796Z,12.38
2023-05-06T14:55:11.819Z,13.14
2023-05-06T14:57:41.126Z,12.79
2023-05-06T15:00:10.179Z,13.03
2023-05-06T15:02:40.525Z,12.62
2023-05-06T15:05:10.043Z,13.74
2023-05-06T15:07:37.988Z,13.49
2023-05-06T15:10:06.407Z,13.63
2023-05-06T15:12:34.709Z,13.40
2023-05-06T15:15:05.135Z,13.24
2023-05-06T15:17:33.471Z,13.19
2023-05-06T15:20:01.196Z,12.79
2023-05-06T15:22:28.913Z,12.80
2023-05-06T15:24:56.520Z,12.78
2023-05-06T15:27:24.194Z,13.16
2023-05-06T15:29:51.801Z,12.71
2023-05-06T15:32:20.891Z,12.55
2023-05-06T15:34:48.523Z,13.00
2023-05-06T15:37:19.180Z,12.33
2023-05-06T15:39:47.794Z,12.19
2023-05-06T15:42:16.893Z,12.24
2023-05-06T15:44:44.681Z,12.02
2023-05-06T15:47:12.381Z,12.46
2023-05-06T15:52:12.313Z,13.60
2023-05-06T15:54:40.989Z,12.95
2023-05-06T15:57:09.603Z,13.07
2023-05-06T15:59:37.345Z,12.59
2023-05-06T16:04:35.660Z,12.54
2023-05-06T16:07:04.768Z,13.07
2023-05-06T16:09:32.578Z,12.08
2023-05-06T16:12:00.196Z,12.36
2023-05-06T16:14:27.812Z,12.67
2023-05-06T16:16:55.453Z,12.38
2023-05-06T16:19:23.251Z,12.96
2023-05-06T16:21:51.019Z,12.30
2023-05-06T16:24:20.034Z,11.88
2023-05-06T16:26:47.688Z,12.46
2023-05-06T16:29:15.688Z,13.09
2023-05-06T16:31:43.371Z,13.05
2023-05-06T16:34:11.077Z,12.77
2023-05-06T16:36:38.828Z,13.39
2023-05-06T16:39:06.951Z,12.91
2023-05-06T16:41:36.041Z,11.99
2023-05-06T16:44:04.163Z,12.04
2023-05-06T16:46:33.339Z,12.04
2023-05-06T16:49:03.536Z,12.60
2023-05-06T16:51:31.418Z,12.21
2023-05-06T16:53:59.149Z,12.13
2023-05-06T16:56:32.986Z,11.82
2023-05-06T16:59:09.551Z,11.73
2023-05-06T17:01:37.132Z,12.08
2023-05-06T17:04:04.931Z,12.04
2023-05-06T17:06:33.016Z,11.84
2023-05-06T17:09:00.676Z,12.53
2023-05-06T17:11:28.385Z,12.04
2023-05-06T17:13:56.027Z,12.75
2023-05-06T17:16:25.062Z,12.24
2023-05-06T17:18:52.697Z,12.69
2023-05-06T17:21:21.422Z,12.08
2023-05-06T17:23:50.583Z,11.86
2023-05-06T17:26:18.457Z,12.16
2023-05-06T17:28:46.927Z,12.51
2023-05-06T17:31:15.869Z,11.66
2023-05-06T17:33:45.241Z,11.48
2023-05-06T17:36:13.662Z,12.17
2023-05-06T17:38:41.282Z,12.34
2023-05-06T17:41:09.016Z,12.12
2023-05-06T17:43:36.666Z,12.31
2023-05-06T17:46:04.451Z,12.55
2023-05-06T17:48:32.081Z,12.74
2023-05-06T17:51:03.159Z,11.92
2023-05-06T17:53:32.266Z,12.31
2023-05-06T17:55:59.983Z,12.14
2023-05-06T17:58:27.586Z,12.40
2023-05-06T18:00:55.247Z,12.20
2023-05-06T18:03:23.712Z,12.92
2023-05-06T18:05:51.487Z,12.35
2023-05-06T18:08:20.518Z,12.01
2023-05-06T18:10:48.163Z,12.37
2023-05-06T18:13:16.082Z,12.49
2023-05-06T18:15:44.035Z,11.92
2023-05-06T18:18:11.691Z,12.20
2023-05-06T18:20:39.847Z,11.96
2023-05-06T18:23:09.113Z,12.03
2023-05-06T18:25:38.083Z,11.99
2023-05-06T18:28:05.937Z,11.75
2023-05-06T18:30:33.575Z,12.04
2023-05-06T18:33:01.218Z,11.61
2023-05-06T18:35:28.924Z,11.94
2023-05-06T18:37:56.532Z,11.84
2023-05-06T18:40:24.239Z,12.10
2023-05-06T18:42:53.226Z,11.60
2023-05-06T18:45:21.443Z,11.78
2023-05-06T18:47:49.081Z,11.95
2023-05-06T18:50:16.710Z,11.47
2023-05-06T18:52:44.365Z,11.61
2023-05-06T18:55:12.225Z,11.21
2023-05-06T18:57:40.064Z,11.38
2023-05-06T19:00:10.898Z,11.72
2023-05-06T19:02:38.671Z,12.01
2023-05-06T19:05:07.684Z,11.78
2023-05-06T19:07:35.609Z,11.72
2023-05-06T19:10:03.264Z,11.85
2023-05-06T19:12:31.090Z,11.64
2023-05-06T19:14:58.704Z,11.66
2023-05-06T19:17:28.536Z,11.27
2023-05-06T19:19:56.115Z,11.48
2023-05-06T19:22:24.129Z,11.24
2023-05-06T19:24:52.720Z,11.54
2023-05-06T19:27:20.348Z,11.10
2023-05-06T19:29:48.231Z,11.09
2023-05-06T19:32:15.849Z,11.26
2023-05-06T19:34:44.799Z,11.78
2023-05-06T19:37:12.407Z,11.72
2023-05-06T19:39:40.020Z,11.53
2023-05-06T19:42:08.524Z,12.23
2023-05-06T19:44:36.209Z,11.45
2023-05-06T19:47:03.818Z,11.50
2023-05-06T19:49:32.495Z,11.23
2023-05-06T19:52:01.761Z,11.34
2023-05-06T19:54:29.432Z,11.39
2023-05-06T19:56:57.023Z,11.46
2023-05-06T19:59:24.766Z,11.42
2023-05-06T20:01:53.215Z,11.65
2023-05-06T20:04:20.998Z,11.71
2023-05-06T20:06:48.648Z,11.70
2023-05-06T20:09:17.580Z,11.92
2023-05-06T20:11:47.080Z,11.76
2023-05-06T20:14:14.853Z,12.10
2023-05-06T20:16:42.552Z,11.91
2023-05-06T20:19:11.261Z,11.89
2023-05-06T20:21:40.186Z,11.90
2023-05-06T20:24:08.053Z,11.75
2023-05-06T20:26:37.024Z,11.36
2023-05-06T20:29:04.676Z,11.88
2023-05-06T20:31:32.337Z,11.52
2023-05-06T20:34:00.024Z,11.18
2023-05-06T20:36:28.075Z,11.27
2023-05-06T20:38:55.668Z,11.07
2023-05-06T20:41:23.307Z,11.05
2023-05-06T20:43:53.979Z,11.28
2023-05-06T20:46:21.820Z,11.76
2023-05-06T20:48:51.384Z,11.42
2023-05-06T20:51:19.466Z,12.18
2023-05-06T20:53:47.481Z,11.83
2023-05-06T20:56:19.122Z,11.66
2023-05-06T20:58:46.762Z,12.08
2023-05-06T21:01:15.978Z,11.39
2023-05-06T21:03:43.768Z,11.16
2023-05-06T21:06:11.446Z,11.54
2023-05-06T21:08:39.113Z,11.30
2023-05-06T21:11:06.738Z,11.35
2023-05-06T21:13:34.344Z,11.65
2023-05-06T21:16:01.972Z,12.01
2023-05-06T21:18:31.064Z,12.53
2023-05-06T21:20:59.563Z,11.66
2023-05-06T21:23:27.275Z,11.57
2023-05-06T21:25:54.914Z,11.57
2023-05-06T21:28:22.565Z,11.38
2023-05-06T21:30:50.270Z,11.28
2023-05-06T21:33:17.878Z,11.38
2023-05-06T21:35:46.826Z,11.11
2023-05-06T21:38:14.495Z,11.67
2023-05-06T21:40:42.122Z,11.59
2023-05-06T21:43:09.770Z,11.66
2023-05-06T21:45:37.524Z,11.73
2023-05-06T21:48:05.376Z,11.55
2023-05-06T21:50:33.670Z,11.42
2023-05-06T21:53:03.576Z,11.97
2023-05-06T21:55:31.366Z,11.01
2023-05-06T21:57:58.990Z,11.11
2023-05-06T22:00:26.703Z,11.27
2023-05-06T22:02:54.455Z,11.32
2023-05-06T22:05:22.500Z,11.06
2023-05-06T22:07:50.855Z,11.20
2023-05-06T22:10:19.896Z,11.19
2023-05-06T22:12:47.610Z,11.19
2023-05-06T22:15:15.593Z,11.35
2023-05-06T22:17:43.422Z,10.97
2023-05-06T22:20:11.968Z,11.29
2023-05-06T22:22:39.685Z,11.41
2023-05-06T22:25:08.595Z,11.52
2023-05-06T22:27:38.024Z,11.22
2023-05-06T22:30:06.245Z,11.11
2023-05-06T22:32:33.899Z,11.41
2023-05-06T22:35:01.717Z,11.27
2023-05-06T22:37:29.417Z,11.45
2023-05-06T22:39:57.161Z,11.01
2023-05-06T22:42:25.134Z,10.97
2023-05-06T22:44:54.095Z,10.91
2023-05-06T22:47:21.735Z,11.37
2023-05-06T22:49:49.409Z,11.38
2023-05-06T22:52:18.976Z,10.70
2023-05-06T22:54:46.671Z,10.56
2023-05-06T22:57:14.807Z,11.27
2023-05-06T22:59:42.401Z,11.18
2023-05-06T23:02:11.834Z,11.45
2023-05-06T23:04:40.315Z,11.46
2023-05-06T23:07:07.954Z,10.80
2023-05-06T23:09:35.619Z,11.27
2023-05-06T23:12:03.669Z,10.77
2023-05-06T23:14:31.373Z,10.80
2023-05-06T23:16:59.216Z,10.67
2023-05-06T23:19:28.320Z,10.45
2023-05-06T23:21:56.480Z,10.66
2023-05-06T23:24:24.141Z,10.81
2023-05-06T23:26:51.984Z,11.03
2023-05-06T23:29:19.761Z,11.37
2023-05-06T23:31:47.447Z,10.42
2023-05-06T23:34:15.066Z,10.81
2023-05-06T23:36:44.031Z,10.84
2023-05-06T23:39:12.176Z,10.77
2023-05-06T23:41:39.883Z,10.96
2023-05-06T23:44:07.539Z,10.91
2023-05-06T23:46:35.270Z,10.18
2023-05-06T23:49:03.105Z,10.75
2023-05-06T23:51:31.682Z,10.70
2023-05-06T23:54:00.664Z,10.61
2023-05-06T23:56:28.496Z,10.70
2023-05-06T23:58:56.130Z,10.86
